createdAt,value
2017-03-24T00:00:53.600Z,73.333
2017-03-24T00:03:46.510Z,73.072
2017-03-24T00:06:39.735Z,73.349
2017-03-24T00:09:32.865Z,73.304
2017-03-24T00:12:27.838Z,73.620
2017-03-24T00:15:19.387Z,73.643
2017-03-24T00:18:12.655Z,74.113
2017-03-24T00:21:05.843Z,74.416
2017-03-24T00:24:00.830Z,75.027
2017-03-24T00:26:52.163Z,75.482
2017-03-24T00:29:47.133Z,75.186
2017-03-24T00:32:38.385Z,76.071
2017-03-24T00:35:33.235Z,76.500
2017-03-24T00:38:24.701Z,77.365
2017-03-24T00:41:17.927Z,77.281
2017-03-24T00:44:12.766Z,77.912
2017-03-24T00:47:04.064Z,78.310
2017-03-24T00:49:57.710Z,78.191
2017-03-24T00:52:51.061Z,79.074
2017-03-24T00:55:44.218Z,79.186
2017-03-24T00:58:37.359Z,79.469
2017-03-24T01:01:30.565Z,79.395
2017-03-24T01:04:23.899Z,79.779
2017-03-24T01:07:17.237Z,79.532
2017-03-24T01:10:10.621Z,80.394
2017-03-24T01:13:03.948Z,79.518
2017-03-24T01:15:57.532Z,80.504
2017-03-24T01:18:50.830Z,80.656
2017-03-24T01:21:44.184Z,80.860
2017-03-24T01:24:37.800Z,81.280
2017-03-24T01:27:31.622Z,81.255
2017-03-24T01:30:25.404Z,81.809
2017-03-24T01:33:20.839Z,81.763
2017-03-24T01:36:12.900Z,81.294
2017-03-24T01:39:07.200Z,82.212
2017-03-24T01:42:01.000Z,82.796
2017-03-24T01:44:54.612Z,82.475
2017-03-24T01:47:48.232Z,83.177
2017-03-24T01:50:41.820Z,82.987
2017-03-24T01:53:35.306Z,83.450
2017-03-24T01:56:30.373Z,83.514
2017-03-24T01:59:22.097Z,83.657
2017-03-24T02:02:15.484Z,83.850
2017-03-24T02:05:08.809Z,84.625
2017-03-24T02:08:02.490Z,83.081
2017-03-24T02:10:56.776Z,83.517
2017-03-24T02:13:51.425Z,83.541
2017-03-24T02:16:43.495Z,83.775
2017-03-24T02:19:37.199Z,84.708
2017-03-24T02:22:30.940Z,82.544
2017-03-24T02:25:24.712Z,79.325
2017-03-24T02:28:20.364Z,84.233
2017-03-24T02:31:12.424Z,84.330
2017-03-24T02:34:07.804Z,84.070
2017-03-24T02:36:59.803Z,84.006
2017-03-24T02:39:55.214Z,83.996
2017-03-24T02:42:47.146Z,84.515
2017-03-24T02:45:42.516Z,84.664
2017-03-24T02:48:34.535Z,84.819
2017-03-24T02:51:28.332Z,84.574
2017-03-24T02:54:22.197Z,84.814
2017-03-24T02:57:16.354Z,84.018
2017-03-24T03:00:10.131Z,84.591
2017-03-24T03:03:03.668Z,84.849
2017-03-24T03:05:57.200Z,85.169
2017-03-24T03:08:50.716Z,85.050
2017-03-24T03:11:44.190Z,85.501
2017-03-24T03:14:37.650Z,85.432
2017-03-24T03:17:31.081Z,84.465
2017-03-24T03:20:26.254Z,85.327
2017-03-24T03:23:18.047Z,85.321
2017-03-24T03:26:11.499Z,84.386
2017-03-24T03:29:05.047Z,84.902
2017-03-24T03:31:58.412Z,85.181
2017-03-24T03:34:51.781Z,85.492
2017-03-24T03:37:45.272Z,85.287
2017-03-24T03:40:38.875Z,85.002
2017-03-24T03:43:32.415Z,84.221
2017-03-24T03:46:27.701Z,84.582
2017-03-24T03:49:19.933Z,84.789
2017-03-24T03:52:13.773Z,84.317
2017-03-24T03:55:07.211Z,84.646
2017-03-24T03:58:00.626Z,84.933
2017-03-24T04:00:55.935Z,85.198
2017-03-24T04:03:49.392Z,85.001
2017-03-24T04:06:41.009Z,85.759
2017-03-24T04:09:34.544Z,86.221
2017-03-24T04:12:29.805Z,86.312
2017-03-24T04:15:22.445Z,86.266
2017-03-24T04:18:15.089Z,87.297
2017-03-24T04:21:08.504Z,87.140
2017-03-24T04:24:03.699Z,87.219
2017-03-24T04:26:57.237Z,87.303
2017-03-24T04:29:49.037Z,87.763
2017-03-24T04:32:42.527Z,87.437
2017-03-24T04:35:37.728Z,87.835
2017-03-24T04:38:29.437Z,88.885
2017-03-24T04:41:22.819Z,88.753
2017-03-24T04:44:16.211Z,89.245
2017-03-24T04:47:09.703Z,89.182
2017-03-24T04:50:04.890Z,89.630
2017-03-24T04:52:56.639Z,89.691
2017-03-24T04:55:50.012Z,89.545
2017-03-24T04:58:43.361Z,89.721
2017-03-24T05:01:36.772Z,89.509
2017-03-24T05:04:31.082Z,89.583
2017-03-24T05:07:25.286Z,89.425
2017-03-24T05:10:16.971Z,89.257
2017-03-24T05:13:10.430Z,90.005
2017-03-24T05:16:05.609Z,90.105
2017-03-24T05:18:57.262Z,90.124
2017-03-24T05:21:50.574Z,89.786
2017-03-24T05:24:43.918Z,89.945
2017-03-24T05:27:38.995Z,86.557
2017-03-24T05:30:30.978Z,83.604
2017-03-24T05:33:26.190Z,83.301
2017-03-24T05:36:18.905Z,83.926
2017-03-24T05:39:13.235Z,83.230
2017-03-24T05:42:05.090Z,84.040
2017-03-24T05:44:58.734Z,83.062
2017-03-24T05:47:52.387Z,81.299
2017-03-24T05:50:45.969Z,79.932
2017-03-24T05:53:39.644Z,76.609
2017-03-24T05:56:33.367Z,74.691
2017-03-24T05:59:27.951Z,74.751
2017-03-24T06:02:20.708Z,74.858
2017-03-24T06:05:14.435Z,76.448
2017-03-24T06:08:08.143Z,76.802
2017-03-24T06:11:01.820Z,77.067
2017-03-24T06:13:55.613Z,75.788
2017-03-24T06:16:49.523Z,75.576
2017-03-24T06:19:43.350Z,74.198
2017-03-24T06:22:37.296Z,72.464
2017-03-24T06:25:32.911Z,72.471
2017-03-24T06:28:25.051Z,72.685
2017-03-24T06:31:18.921Z,72.458
2017-03-24T06:34:14.743Z,66.974
2017-03-24T06:37:07.206Z,65.486
2017-03-24T06:40:01.409Z,61.697
2017-03-24T06:42:55.904Z,58.061
2017-03-24T06:45:50.386Z,49.283
2017-03-24T06:48:44.985Z,52.623
2017-03-24T06:51:39.623Z,47.995
2017-03-24T06:54:34.121Z,44.570
2017-03-24T06:57:28.571Z,42.959
2017-03-24T07:00:23.061Z,42.499
2017-03-24T07:03:17.669Z,40.184
2017-03-24T07:06:12.163Z,38.888
2017-03-24T07:09:06.735Z,35.700
2017-03-24T07:12:01.314Z,41.626
2017-03-24T07:14:55.719Z,40.646
2017-03-24T07:17:51.760Z,40.649
2017-03-24T07:20:44.128Z,47.691
2017-03-24T07:23:38.420Z,42.846
2017-03-24T07:26:32.821Z,44.572
2017-03-24T07:29:28.988Z,43.449
2017-03-24T07:32:21.463Z,44.111
2017-03-24T07:35:15.718Z,44.344
2017-03-24T07:38:10.054Z,43.602
2017-03-24T07:41:04.274Z,43.713
2017-03-24T07:43:58.841Z,43.470
2017-03-24T07:46:53.236Z,41.414
2017-03-24T07:49:47.636Z,39.696
2017-03-24T07:52:42.154Z,38.482
2017-03-24T07:55:36.669Z,39.980
2017-03-24T07:58:31.338Z,45.712
2017-03-24T08:01:26.038Z,36.677
2017-03-24T08:04:20.502Z,35.563
2017-03-24T08:07:14.957Z,34.283
2017-03-24T08:10:09.543Z,33.988
2017-03-24T08:13:05.203Z,29.763
2017-03-24T08:16:00.600Z,26.674
2017-03-24T08:18:56.576Z,24.023
2017-03-24T08:21:52.417Z,32.019
2017-03-24T08:24:48.163Z,24.613
2017-03-24T08:27:44.772Z,24.093
2017-03-24T08:30:38.135Z,24.758
2017-03-24T08:33:33.302Z,17.504
2017-03-24T08:36:28.378Z,18.332
2017-03-24T08:39:23.463Z,19.819
2017-03-24T08:42:19.121Z,27.467
2017-03-24T08:45:14.846Z,17.967
2017-03-24T08:48:10.419Z,22.009
2017-03-24T08:51:06.075Z,27.626
2017-03-24T08:54:01.555Z,16.367
2017-03-24T08:56:57.112Z,15.256
2017-03-24T08:59:52.593Z,14.303
2017-03-24T09:02:48.041Z,11.685
2017-03-24T09:05:43.394Z,21.957
2017-03-24T09:08:38.709Z,11.458
2017-03-24T09:11:33.582Z,10.407
2017-03-24T09:14:28.894Z,7.640
2017-03-24T09:17:24.100Z,6.089
2017-03-24T09:20:19.199Z,6.792
2017-03-24T09:23:14.315Z,7.873
2017-03-24T09:26:09.514Z,0.840
2017-03-24T09:29:04.577Z,3.533
2017-03-24T09:31:59.494Z,5.322
2017-03-24T09:34:54.715Z,2.605
2017-03-24T09:37:49.824Z,0.389
2017-03-24T09:40:44.969Z,0.970
2017-03-24T09:43:39.878Z,1.244
2017-03-24T09:46:34.603Z,0.000
2017-03-24T09:49:29.121Z,2.243
2017-03-24T09:52:23.486Z,3.701
2017-03-24T09:55:17.963Z,10.748
2017-03-24T09:58:12.085Z,9.918
2017-03-24T10:01:06.477Z,11.170
2017-03-24T10:04:01.655Z,17.441
2017-03-24T10:06:56.675Z,10.524
2017-03-24T10:09:51.422Z,9.822
2017-03-24T10:12:46.344Z,11.065
2017-03-24T10:15:41.539Z,9.900
2017-03-24T10:18:36.809Z,6.346
2017-03-24T10:21:32.323Z,4.414
2017-03-24T10:24:27.418Z,5.317
2017-03-24T10:27:21.582Z,6.160
2017-03-24T10:30:15.143Z,9.722
2017-03-24T10:33:08.786Z,17.117
2017-03-24T10:36:02.624Z,20.053
2017-03-24T10:38:57.159Z,23.568
2017-03-24T10:41:52.264Z,26.833
2017-03-24T10:44:47.477Z,28.646
2017-03-24T10:47:42.493Z,29.709
2017-03-24T10:50:37.695Z,30.747
2017-03-24T10:53:34.498Z,31.427
2017-03-24T10:56:27.785Z,33.122
2017-03-24T10:59:23.006Z,32.185
2017-03-24T11:02:18.012Z,33.617
2017-03-24T11:05:13.127Z,33.160
2017-03-24T11:08:08.139Z,34.669
2017-03-24T11:11:03.072Z,34.572
2017-03-24T11:13:57.954Z,34.271
2017-03-24T11:16:54.506Z,35.849
2017-03-24T11:19:47.429Z,37.375
2017-03-24T11:22:41.977Z,34.652
2017-03-24T11:25:36.309Z,36.347
2017-03-24T11:28:30.799Z,37.261
2017-03-24T11:31:25.501Z,37.689
2017-03-24T11:34:19.927Z,37.174
2017-03-24T11:37:14.480Z,37.129
2017-03-24T11:40:08.847Z,37.770
2017-03-24T11:43:04.895Z,38.916
2017-03-24T11:45:57.593Z,39.000
2017-03-24T11:48:52.026Z,38.996
2017-03-24T11:51:46.520Z,39.114
2017-03-24T11:54:40.877Z,38.333
2017-03-24T11:57:35.235Z,39.251
2017-03-24T12:00:29.608Z,38.942
2017-03-24T12:03:23.961Z,38.775
2017-03-24T12:06:18.345Z,39.006
2017-03-24T12:09:12.832Z,39.608
2017-03-24T12:12:07.296Z,40.900
2017-03-24T12:15:01.649Z,39.678
2017-03-24T12:17:56.032Z,38.649
2017-03-24T12:20:50.240Z,39.674
2017-03-24T12:23:44.461Z,40.166
2017-03-24T12:26:38.726Z,39.240
2017-03-24T12:29:32.922Z,39.402
2017-03-24T12:32:27.299Z,39.212
2017-03-24T12:35:21.320Z,39.166
2017-03-24T12:38:15.553Z,39.214
2017-03-24T12:41:11.474Z,40.249
2017-03-24T12:44:03.922Z,40.310
2017-03-24T12:46:58.018Z,40.958
2017-03-24T12:49:52.163Z,40.176
2017-03-24T12:52:46.186Z,39.780
2017-03-24T12:55:40.106Z,39.262
2017-03-24T12:58:34.006Z,40.225
2017-03-24T13:01:27.937Z,39.559
2017-03-24T13:04:21.928Z,39.228
2017-03-24T13:07:15.832Z,39.544
2017-03-24T13:10:09.769Z,39.199
2017-03-24T13:13:03.668Z,39.166
2017-03-24T13:15:57.503Z,39.635
2017-03-24T13:18:51.390Z,41.068
2017-03-24T13:21:45.271Z,40.518
2017-03-24T13:24:39.292Z,40.831
2017-03-24T13:27:33.150Z,40.525
2017-03-24T13:30:27.004Z,40.113
2017-03-24T13:33:20.961Z,40.793
2017-03-24T13:36:14.755Z,39.760
2017-03-24T13:39:08.662Z,40.721
2017-03-24T13:42:02.525Z,40.721
2017-03-24T13:44:56.401Z,39.730
2017-03-24T13:47:50.196Z,40.650
2017-03-24T13:50:43.943Z,41.267
2017-03-24T13:53:37.702Z,39.553
2017-03-24T13:56:31.393Z,40.628
2017-03-24T13:59:26.808Z,40.220
2017-03-24T14:02:18.733Z,39.952
2017-03-24T14:05:12.398Z,40.366
2017-03-24T14:08:05.929Z,40.685
2017-03-24T14:10:59.537Z,40.175
2017-03-24T14:13:53.129Z,41.324
2017-03-24T14:16:46.741Z,41.130
2017-03-24T14:19:40.398Z,40.461
2017-03-24T14:22:34.079Z,40.564
2017-03-24T14:25:27.855Z,39.886
2017-03-24T14:28:21.313Z,40.019
2017-03-24T14:31:14.995Z,41.838
2017-03-24T14:34:08.670Z,40.650
2017-03-24T14:37:02.442Z,39.526
2017-03-24T14:39:56.066Z,39.343
2017-03-24T14:42:49.688Z,41.235
2017-03-24T14:45:43.484Z,39.344
2017-03-24T14:48:37.192Z,40.106
2017-03-24T14:51:30.991Z,39.769
2017-03-24T14:54:24.536Z,39.926
2017-03-24T14:57:18.207Z,41.219
2017-03-24T15:00:11.746Z,40.479
2017-03-24T15:03:05.235Z,40.073
2017-03-24T15:05:59.064Z,39.500
2017-03-24T15:08:52.646Z,40.176
2017-03-24T15:11:46.256Z,40.906
2017-03-24T15:14:39.828Z,39.868
2017-03-24T15:17:33.573Z,40.280
2017-03-24T15:20:27.202Z,40.814
2017-03-24T15:23:20.708Z,39.984
2017-03-24T15:26:14.239Z,39.325
2017-03-24T15:29:07.773Z,40.216
2017-03-24T15:32:03.409Z,40.887
2017-03-24T15:34:55.078Z,40.261
2017-03-24T15:37:48.541Z,40.426
2017-03-24T15:40:42.114Z,41.565
2017-03-24T15:43:35.717Z,42.059
2017-03-24T15:46:29.324Z,40.716
2017-03-24T15:49:22.854Z,41.329
2017-03-24T15:52:16.186Z,40.649
2017-03-24T15:55:09.795Z,41.859
2017-03-24T15:58:03.280Z,41.589
2017-03-24T16:00:56.730Z,40.836
2017-03-24T16:03:50.116Z,43.014
2017-03-24T16:06:43.534Z,42.743
2017-03-24T16:09:36.925Z,42.600
2017-03-24T16:12:30.352Z,43.812
2017-03-24T16:15:25.472Z,42.579
2017-03-24T16:18:17.093Z,42.769
2017-03-24T16:21:10.414Z,42.615
2017-03-24T16:24:03.663Z,43.163
2017-03-24T16:26:56.824Z,43.234
2017-03-24T16:29:50.035Z,43.989
2017-03-24T16:32:43.314Z,42.738
2017-03-24T16:35:36.622Z,44.115
2017-03-24T16:38:29.953Z,44.373
2017-03-24T16:41:23.375Z,44.113
2017-03-24T16:44:18.439Z,43.500
2017-03-24T16:47:10.253Z,45.698
2017-03-24T16:50:03.855Z,45.669
2017-03-24T16:52:57.226Z,44.827
2017-03-24T16:55:50.608Z,45.261
2017-03-24T16:58:44.008Z,46.001
2017-03-24T17:01:37.390Z,46.369
2017-03-24T17:04:32.417Z,47.458
2017-03-24T17:07:24.357Z,47.045
2017-03-24T17:10:17.861Z,47.470
2017-03-24T17:13:11.011Z,47.792
2017-03-24T17:16:04.333Z,48.027
2017-03-24T17:18:57.605Z,49.386
2017-03-24T17:21:50.862Z,49.697
2017-03-24T17:24:44.367Z,49.666
2017-03-24T17:27:37.757Z,49.163
2017-03-24T17:30:31.125Z,50.612
2017-03-24T17:33:24.468Z,50.601
2017-03-24T17:36:17.861Z,50.444
2017-03-24T17:39:11.133Z,50.640
2017-03-24T17:42:04.257Z,50.555
2017-03-24T17:44:57.889Z,51.809
2017-03-24T17:47:52.898Z,51.649
2017-03-24T17:50:44.421Z,51.922
2017-03-24T17:53:38.342Z,52.202
2017-03-24T17:56:31.408Z,52.922
2017-03-24T17:59:24.976Z,53.387
2017-03-24T18:02:18.769Z,53.252
2017-03-24T18:05:11.871Z,53.111
2017-03-24T18:08:05.151Z,53.335
2017-03-24T18:10:58.235Z,53.998
2017-03-24T18:13:51.425Z,53.839
2017-03-24T18:16:44.549Z,51.694
2017-03-24T18:19:37.642Z,52.690
2017-03-24T18:22:30.648Z,53.476
2017-03-24T18:25:25.427Z,50.186
2017-03-24T18:28:16.813Z,49.568
2017-03-24T18:31:09.943Z,50.952
2017-03-24T18:34:03.070Z,50.724
2017-03-24T18:36:56.077Z,51.617
2017-03-24T18:39:49.116Z,51.127
2017-03-24T18:42:43.983Z,52.287
2017-03-24T18:45:35.519Z,51.735
2017-03-24T18:48:28.829Z,50.498
2017-03-24T18:51:22.084Z,51.650
2017-03-24T18:54:15.188Z,51.878
2017-03-24T18:57:08.207Z,51.906
2017-03-24T19:00:01.304Z,51.849
2017-03-24T19:02:55.986Z,53.094
2017-03-24T19:05:47.315Z,52.641
2017-03-24T19:08:40.293Z,51.969
2017-03-24T19:11:33.323Z,51.955
2017-03-24T19:14:26.218Z,53.262
2017-03-24T19:17:19.098Z,53.434
2017-03-24T19:20:11.993Z,54.385
2017-03-24T19:23:04.665Z,54.571
2017-03-24T19:25:59.346Z,53.972
2017-03-24T19:28:50.954Z,55.074
2017-03-24T19:31:44.523Z,54.818
2017-03-24T19:34:37.896Z,54.502
2017-03-24T19:37:33.338Z,54.276
2017-03-24T19:40:25.260Z,55.738
2017-03-24T19:43:18.712Z,55.879
2017-03-24T19:46:14.001Z,55.653
2017-03-24T19:49:05.803Z,55.964
2017-03-24T19:52:01.406Z,56.247
2017-03-24T19:54:53.481Z,54.918
2017-03-24T19:57:47.253Z,56.484
2017-03-24T20:00:40.995Z,56.747
2017-03-24T20:03:34.640Z,58.378
2017-03-24T20:06:30.107Z,57.242
2017-03-24T20:09:23.934Z,58.488
2017-03-24T20:12:15.962Z,57.838
2017-03-24T20:15:09.721Z,59.436
2017-03-24T20:18:05.158Z,58.224
2017-03-24T20:20:57.304Z,59.178
2017-03-24T20:23:51.077Z,58.894
2017-03-24T20:26:46.489Z,60.906
2017-03-24T20:29:38.559Z,61.947
2017-03-24T20:32:32.507Z,60.314
2017-03-24T20:35:26.297Z,60.609
2017-03-24T20:38:20.105Z,60.239
2017-03-24T20:41:15.545Z,60.031
2017-03-24T20:44:07.555Z,59.588
2017-03-24T20:47:02.889Z,58.260
2017-03-24T20:49:54.935Z,56.495
2017-03-24T20:52:48.586Z,58.517
2017-03-24T20:55:42.343Z,58.202
2017-03-24T20:58:36.269Z,57.563
2017-03-24T21:01:30.035Z,57.420
2017-03-24T21:04:25.864Z,57.217
2017-03-24T21:07:18.121Z,56.501
2017-03-24T21:10:12.038Z,58.561
2017-03-24T21:13:06.126Z,57.747
2017-03-24T21:16:01.744Z,58.222
2017-03-24T21:18:55.697Z,59.053
2017-03-24T21:21:48.040Z,59.262
2017-03-24T21:24:41.995Z,58.268
2017-03-24T21:27:38.152Z,59.622
2017-03-24T21:30:32.198Z,58.810
2017-03-24T21:33:25.953Z,59.577
2017-03-24T21:36:18.068Z,59.461
2017-03-24T21:39:12.036Z,60.559
2017-03-24T21:42:07.714Z,60.094
2017-03-24T21:45:00.090Z,60.677
2017-03-24T21:47:53.970Z,60.275
2017-03-24T21:50:47.901Z,62.571
2017-03-24T21:53:43.457Z,60.981
2017-03-24T21:56:35.539Z,58.569
2017-03-24T21:59:29.363Z,60.593
2017-03-24T22:02:23.094Z,61.018
2017-03-24T22:05:16.916Z,61.399
2017-03-24T22:08:10.571Z,62.873
2017-03-24T22:11:04.269Z,61.569
2017-03-24T22:13:58.056Z,62.521
2017-03-24T22:16:52.020Z,61.598
2017-03-24T22:19:45.822Z,64.065
2017-03-24T22:22:39.587Z,63.747
2017-03-24T22:25:33.302Z,65.576
2017-03-24T22:28:27.205Z,64.776
2017-03-24T22:31:22.674Z,65.756
2017-03-24T22:34:14.757Z,66.854
2017-03-24T22:37:08.551Z,67.074
2017-03-24T22:40:02.322Z,68.348
2017-03-24T22:42:56.174Z,68.568
2017-03-24T22:45:50.144Z,66.676
2017-03-24T22:48:43.952Z,66.869
2017-03-24T22:51:39.603Z,67.178
2017-03-24T22:54:32.223Z,66.537
2017-03-24T22:57:27.898Z,67.118
2017-03-24T23:00:20.005Z,67.674
2017-03-24T23:03:15.576Z,68.834
2017-03-24T23:06:09.350Z,69.135
2017-03-24T23:09:01.595Z,69.947
2017-03-24T23:11:57.155Z,68.099
2017-03-24T23:14:49.301Z,69.078
2017-03-24T23:17:43.465Z,70.153
2017-03-24T23:20:37.141Z,70.174
2017-03-24T23:23:30.826Z,70.956
2017-03-24T23:26:24.571Z,71.265
2017-03-24T23:29:18.378Z,70.622
2017-03-24T23:32:12.175Z,70.396
2017-03-24T23:35:06.104Z,71.682
2017-03-24T23:38:01.760Z,72.031
2017-03-24T23:40:53.976Z,70.827
2017-03-24T23:43:47.815Z,70.187
2017-03-24T23:46:41.688Z,70.464
2017-03-24T23:49:37.465Z,71.476
2017-03-24T23:52:29.574Z,71.738
2017-03-24T23:55:25.316Z,72.833
2017-03-24T23:58:19.071Z,72.958
